createdAt,value
2023-05-06T00:00:25.592Z,13.9030
2023-05-06T00:01:26.583Z,13.9165
2023-05-06T00:02:27.590Z,13.9340
2023-05-06T00:03:28.958Z,13.9474
2023-05-06T00:04:29.219Z,13.9567
2023-05-06T00:05:29.371Z,13.9603
2023-05-06T00:06:29.910Z,13.9578
2023-05-06T00:07:30.720Z,13.9572
2023-05-06T00:08:31.481Z,13.9490
2023-05-06T00:09:31.863Z,13.9519
2023-05-06T00:10:32.518Z,13.9603
2023-05-06T00:11:33.122Z,13.9643
2023-05-06T00:12:33.866Z,13.9796
2023-05-06T00:13:34.571Z,13.9762
2023-05-06T00:14:35.376Z,13.9837
2023-05-06T00:15:36.267Z,13.9801
2023-05-06T00:16:37.231Z,13.9806
2023-05-06T00:17:38.488Z,13.9806
2023-05-06T00:18:39.270Z,13.9882
2023-05-06T00:19:40.126Z,13.9946
2023-05-06T00:20:40.743Z,13.9928
2023-05-06T00:21:41.130Z,13.9813
2023-05-06T00:22:41.734Z,13.9801
2023-05-06T00:23:42.541Z,13.9679
2023-05-06T00:24:43.543Z,13.9505
2023-05-06T00:25:43.759Z,13.9379
2023-05-06T00:26:44.115Z,13.9398
2023-05-06T00:27:45.115Z,13.9263
2023-05-06T00:28:45.410Z,13.9141
2023-05-06T00:29:45.935Z,13.8932
2023-05-06T00:30:46.742Z,13.8832
2023-05-06T00:31:47.386Z,13.8882
2023-05-06T00:32:47.798Z,13.8837
2023-05-06T00:33:48.444Z,13.8816
2023-05-06T00:34:49.000Z,13.9004
2023-05-06T00:35:49.677Z,13.9142
2023-05-06T00:36:50.270Z,13.9165
2023-05-06T00:37:51.198Z,13.9238
2023-05-06T00:38:51.613Z,13.9389
2023-05-06T00:39:52.370Z,13.9457
2023-05-06T00:40:53.073Z,13.9601
2023-05-06T00:41:53.780Z,13.9625
2023-05-06T00:42:54.636Z,13.9596
2023-05-06T00:43:55.063Z,13.9508
2023-05-06T00:44:55.596Z,13.9564
2023-05-06T00:45:55.606Z,13.9524
2023-05-06T00:46:56.247Z,13.9451
2023-05-06T00:47:56.961Z,13.9239
2023-05-06T00:48:57.496Z,13.9160
2023-05-06T00:49:58.040Z,13.8920
2023-05-06T00:50:58.575Z,13.8777
2023-05-06T00:51:59.039Z,13.8727
2023-05-06T00:52:59.786Z,13.8655
2023-05-06T00:54:00.470Z,13.8644
2023-05-06T00:55:01.079Z,13.8869
2023-05-06T00:56:01.762Z,13.8906
2023-05-06T00:57:02.458Z,13.8956
2023-05-06T00:58:03.441Z,13.8957
2023-05-06T00:59:03.956Z,13.8785
2023-05-06T01:00:04.669Z,13.8752
2023-05-06T01:01:05.726Z,13.8651
2023-05-06T01:02:06.675Z,13.8564
2023-05-06T01:03:07.748Z,13.8544
2023-05-06T01:04:08.398Z,13.8602
2023-05-06T01:05:09.263Z,13.8528
2023-05-06T01:06:09.850Z,13.8391
2023-05-06T01:07:10.405Z,13.8148
2023-05-06T01:08:11.178Z,13.7994
2023-05-06T01:09:12.046Z,13.8082
2023-05-06T01:10:12.739Z,13.8070
2023-05-06T01:11:15.625Z,13.8066
2023-05-06T01:12:13.989Z,13.8077
2023-05-06T01:13:15.184Z,13.8124
2023-05-06T01:14:16.073Z,13.8281
2023-05-06T01:15:16.251Z,13.8272
2023-05-06T01:16:17.350Z,13.8300
2023-05-06T01:17:18.461Z,13.8537
2023-05-06T01:18:18.709Z,13.8625
2023-05-06T01:19:19.406Z,13.8871
2023-05-06T01:20:20.244Z,13.8746
2023-05-06T01:21:20.965Z,13.8806
2023-05-06T01:22:21.835Z,13.8885
2023-05-06T01:23:22.586Z,13.8890
2023-05-06T01:24:23.476Z,13.8870
2023-05-06T01:25:23.790Z,13.8857
2023-05-06T01:26:24.618Z,13.9115
2023-05-06T01:27:25.569Z,13.9160
2023-05-06T01:28:26.496Z,13.9098
2023-05-06T01:29:27.354Z,13.9107
2023-05-06T01:30:28.502Z,13.9079
2023-05-06T01:31:29.407Z,13.9062
2023-05-06T01:32:30.480Z,13.9064
2023-05-06T01:33:31.568Z,13.9042
2023-05-06T01:34:32.508Z,13.8839
2023-05-06T01:35:32.636Z,13.8801
2023-05-06T01:36:33.360Z,13.8331
2023-05-06T01:37:34.511Z,13.8002
2023-05-06T01:38:35.238Z,13.8070
2023-05-06T01:39:36.063Z,13.7936
2023-05-06T01:40:36.973Z,13.7557
2023-05-06T01:41:37.616Z,13.7348
2023-05-06T01:42:38.564Z,13.7213
2023-05-06T01:43:39.236Z,13.7031
2023-05-06T01:44:40.224Z,13.6623
2023-05-06T01:45:41.110Z,13.5958
2023-05-06T01:46:42.215Z,13.5065
2023-05-06T01:47:43.469Z,13.4506
2023-05-06T01:48:44.335Z,13.4582
2023-05-06T01:49:45.271Z,13.4245
2023-05-06T01:50:46.287Z,13.3902
2023-05-06T01:51:47.385Z,13.3918
2023-05-06T01:52:48.280Z,13.4046
2023-05-06T01:53:49.059Z,13.4096
2023-05-06T01:54:50.000Z,13.4156
2023-05-06T01:55:50.937Z,13.4347
2023-05-06T01:56:51.763Z,13.4505
2023-05-06T01:57:52.687Z,13.4582
2023-05-06T01:58:53.383Z,13.4685
2023-05-06T01:59:54.248Z,13.4855
2023-05-06T02:00:55.128Z,13.4968
2023-05-06T02:01:56.062Z,13.5160
2023-05-06T02:02:56.979Z,13.5038
2023-05-06T02:03:57.567Z,13.5052
2023-05-06T02:04:58.783Z,13.5188
2023-05-06T02:05:59.482Z,13.5286
2023-05-06T02:07:00.312Z,13.5318
2023-05-06T02:08:01.240Z,13.5244
2023-05-06T02:09:02.051Z,13.5044
2023-05-06T02:10:02.971Z,13.5056
2023-05-06T02:11:03.629Z,13.5016
2023-05-06T02:12:04.455Z,13.5004
2023-05-06T02:13:05.419Z,13.5110
2023-05-06T02:14:06.288Z,13.5028
2023-05-06T02:15:07.322Z,13.5103
2023-05-06T02:16:08.423Z,13.5218
2023-05-06T02:17:09.677Z,13.4480
2023-05-06T02:18:10.807Z,13.4186
2023-05-06T02:19:11.513Z,13.4085
2023-05-06T02:20:12.407Z,13.4252
2023-05-06T02:21:13.119Z,13.4338
2023-05-06T02:22:13.953Z,13.4514
2023-05-06T02:23:14.624Z,13.4667
2023-05-06T02:24:15.624Z,13.4669
2023-05-06T02:25:16.508Z,13.4732
2023-05-06T02:26:17.322Z,13.4848
2023-05-06T02:27:18.317Z,13.5127
2023-05-06T02:28:19.258Z,13.5292
2023-05-06T02:29:20.177Z,13.5285
2023-05-06T02:30:21.007Z,13.5078
2023-05-06T02:31:21.890Z,13.4896
2023-05-06T02:32:21.990Z,13.4924
2023-05-06T02:33:22.750Z,13.5060
2023-05-06T02:34:23.437Z,13.5203
2023-05-06T02:35:24.045Z,13.5484
2023-05-06T02:36:24.836Z,13.5593
2023-05-06T02:37:25.291Z,13.5831
2023-05-06T02:38:26.017Z,13.5951
2023-05-06T02:39:26.511Z,13.5977
2023-05-06T02:40:27.222Z,13.6097
2023-05-06T02:41:28.130Z,13.6147
2023-05-06T02:42:29.077Z,13.6193
2023-05-06T02:43:30.275Z,13.6405
2023-05-06T02:44:30.384Z,13.6419
2023-05-06T02:45:31.350Z,13.6418
2023-05-06T02:46:32.100Z,13.6397
2023-05-06T02:47:33.041Z,13.6353
2023-05-06T02:48:33.955Z,13.6341
2023-05-06T02:49:34.878Z,13.6318
2023-05-06T02:50:35.809Z,13.6177
2023-05-06T02:51:36.570Z,13.6162
2023-05-06T02:52:37.494Z,13.6151
2023-05-06T02:53:38.224Z,13.6262
2023-05-06T02:54:39.105Z,13.6195
2023-05-06T02:55:40.048Z,13.6103
2023-05-06T02:56:40.764Z,13.6121
2023-05-06T02:57:41.716Z,13.6022
2023-05-06T02:58:42.437Z,13.6054
2023-05-06T02:59:43.395Z,13.5990
2023-05-06T03:00:44.387Z,13.6065
2023-05-06T03:01:45.381Z,13.5981
2023-05-06T03:02:46.322Z,13.6114
2023-05-06T03:03:47.160Z,13.6097
2023-05-06T03:04:48.257Z,13.6046
2023-05-06T03:05:49.364Z,13.6041
2023-05-06T03:06:50.110Z,13.6090
2023-05-06T03:07:51.031Z,13.6053
2023-05-06T03:08:51.802Z,13.6022
2023-05-06T03:09:52.685Z,13.5992
2023-05-06T03:10:53.473Z,13.6069
2023-05-06T03:11:54.436Z,13.6115
2023-05-06T03:12:55.363Z,13.6100
2023-05-06T03:13:56.384Z,13.6061
2023-05-06T03:14:57.459Z,13.5968
2023-05-06T03:15:58.261Z,13.5968
2023-05-06T03:16:59.368Z,13.5927
2023-05-06T03:17:59.705Z,13.5870
2023-05-06T03:19:00.675Z,13.5816
2023-05-06T03:20:01.729Z,13.5634
2023-05-06T03:21:02.527Z,13.5623
2023-05-06T03:22:03.806Z,13.5562
2023-05-06T03:23:04.674Z,13.5445
2023-05-06T03:24:05.577Z,13.5328
2023-05-06T03:25:06.512Z,13.5218
2023-05-06T03:26:06.598Z,13.5009
2023-05-06T03:27:07.640Z,13.5053
2023-05-06T03:28:08.607Z,13.5070
2023-05-06T03:29:09.428Z,13.4775
2023-05-06T03:30:10.517Z,13.4862
2023-05-06T03:31:11.382Z,13.4926
2023-05-06T03:32:11.536Z,13.4752
2023-05-06T03:33:12.871Z,13.4760
2023-05-06T03:34:13.741Z,13.4746
2023-05-06T03:35:14.475Z,13.4546
2023-05-06T03:36:15.270Z,13.4117
2023-05-06T03:37:16.303Z,13.3944
2023-05-06T03:38:17.196Z,13.3617
2023-05-06T03:39:18.294Z,13.3392
2023-05-06T03:40:19.264Z,13.2919
2023-05-06T03:41:19.993Z,13.2441
2023-05-06T03:42:20.724Z,13.2334
2023-05-06T03:43:21.470Z,13.2283
2023-05-06T03:44:22.461Z,13.1978
2023-05-06T03:45:23.383Z,13.1760
2023-05-06T03:46:24.390Z,13.1574
2023-05-06T03:47:25.657Z,13.1494
2023-05-06T03:48:26.759Z,13.1379
2023-05-06T03:49:27.899Z,13.1240
2023-05-06T03:50:28.978Z,13.1210
2023-05-06T03:51:29.987Z,13.1034
2023-05-06T03:52:31.021Z,13.0834
2023-05-06T03:53:31.906Z,13.0705
2023-05-06T03:54:32.883Z,13.0562
2023-05-06T03:55:33.189Z,13.0464
2023-05-06T03:56:34.016Z,13.0489
2023-05-06T03:57:35.296Z,13.0458
2023-05-06T03:58:36.338Z,13.0463
2023-05-06T03:59:37.239Z,13.0492
2023-05-06T04:00:38.355Z,13.0500
2023-05-06T04:01:39.299Z,13.0563
2023-05-06T04:02:39.653Z,13.0602
2023-05-06T04:03:40.015Z,13.0552
2023-05-06T04:04:39.976Z,13.0369
2023-05-06T04:05:41.009Z,13.0573
2023-05-06T04:06:41.947Z,13.0545
2023-05-06T04:07:42.875Z,13.0727
2023-05-06T04:08:43.744Z,13.0895
2023-05-06T04:09:44.738Z,13.1105
2023-05-06T04:10:45.857Z,13.1377
2023-05-06T04:11:45.845Z,13.1651
2023-05-06T04:12:46.881Z,13.1696
2023-05-06T04:13:46.911Z,13.1786
2023-05-06T04:14:47.922Z,13.1910
2023-05-06T04:15:48.723Z,13.1880
2023-05-06T04:16:49.780Z,13.2044
2023-05-06T04:17:50.636Z,13.2206
2023-05-06T04:18:51.687Z,13.2397
2023-05-06T04:19:52.578Z,13.2571
2023-05-06T04:20:53.444Z,13.2573
2023-05-06T04:21:54.565Z,13.2567
2023-05-06T04:22:55.389Z,13.2575
2023-05-06T04:23:56.344Z,13.2733
2023-05-06T04:24:57.416Z,13.2790
2023-05-06T04:25:58.244Z,13.2862
2023-05-06T04:26:59.190Z,13.3040
2023-05-06T04:28:00.155Z,13.3029
2023-05-06T04:29:01.111Z,13.3217
2023-05-06T04:30:02.404Z,13.3174
2023-05-06T04:31:03.187Z,13.3128
2023-05-06T04:32:04.404Z,13.3179
2023-05-06T04:33:05.525Z,13.3015
2023-05-06T04:34:05.885Z,13.3058
2023-05-06T04:35:07.117Z,13.3052
2023-05-06T04:36:08.070Z,13.3120
2023-05-06T04:37:09.173Z,13.3288
2023-05-06T04:38:09.948Z,13.3486
2023-05-06T04:39:11.027Z,13.3614
2023-05-06T04:40:12.090Z,13.3757
2023-05-06T04:41:12.956Z,13.3829
2023-05-06T04:42:14.147Z,13.4061
2023-05-06T04:43:15.082Z,13.4141
2023-05-06T04:44:16.169Z,13.4113
2023-05-06T04:45:17.242Z,13.4178
2023-05-06T04:46:18.395Z,13.4201
2023-05-06T04:47:19.513Z,13.4213
2023-05-06T04:48:20.700Z,13.4221
2023-05-06T04:49:21.829Z,13.3791
2023-05-06T04:50:22.947Z,13.3835
2023-05-06T04:51:24.006Z,13.3545
2023-05-06T04:52:24.108Z,13.3487
2023-05-06T04:53:25.575Z,13.3460
2023-05-06T04:54:26.569Z,13.3333
2023-05-06T04:55:26.986Z,13.3443
2023-05-06T04:56:27.952Z,13.3646
2023-05-06T04:57:29.067Z,13.3473
2023-05-06T04:58:30.161Z,13.3125
2023-05-06T04:59:31.137Z,13.2997
2023-05-06T05:00:32.318Z,13.3094
2023-05-06T05:01:33.561Z,13.3142
2023-05-06T05:02:33.934Z,13.2838
2023-05-06T05:03:34.686Z,13.2809
2023-05-06T05:04:34.622Z,13.2822
2023-05-06T05:05:34.684Z,13.2541
2023-05-06T05:06:35.584Z,13.2728
2023-05-06T05:07:36.743Z,13.2846
2023-05-06T05:08:37.719Z,13.2978
2023-05-06T05:09:38.984Z,13.3049
2023-05-06T05:11:39.704Z,13.2946
2023-05-06T05:12:41.044Z,13.3015
2023-05-06T05:13:40.998Z,13.3037
2023-05-06T05:14:42.148Z,13.2908
2023-05-06T05:15:42.315Z,13.2849
2023-05-06T05:16:43.636Z,13.2909
2023-05-06T05:18:44.427Z,13.3110
2023-05-06T05:19:44.625Z,13.3137
2023-05-06T05:20:45.665Z,13.3143
2023-05-06T05:21:46.825Z,13.3338
2023-05-06T05:22:47.778Z,13.3489
2023-05-06T05:23:49.014Z,13.3673
2023-05-06T05:24:50.124Z,13.3695
2023-05-06T05:25:50.813Z,13.4134
2023-05-06T05:26:51.984Z,13.4448
2023-05-06T05:27:52.926Z,13.4713
2023-05-06T05:28:54.000Z,13.5008
2023-05-06T05:29:55.167Z,13.5386
2023-05-06T05:30:56.379Z,13.5724
2023-05-06T05:31:57.518Z,13.6257
2023-05-06T05:32:59.008Z,13.6697
2023-05-06T05:33:59.021Z,13.6925
2023-05-06T05:35:00.303Z,13.7223
2023-05-06T05:36:01.300Z,13.7299
2023-05-06T05:37:02.492Z,13.7501
2023-05-06T05:38:03.532Z,13.7714
2023-05-06T05:39:04.852Z,13.7806
2023-05-06T05:40:06.021Z,13.7848
2023-05-06T05:41:07.067Z,13.7515
2023-05-06T05:42:08.376Z,13.7702
2023-05-06T05:43:09.597Z,13.7924
2023-05-06T05:44:10.764Z,13.8375
2023-05-06T05:45:11.214Z,13.8663
2023-05-06T05:46:12.280Z,13.8969
2023-05-06T05:47:12.383Z,13.9147
2023-05-06T05:48:13.671Z,13.9215
2023-05-06T05:49:14.870Z,13.8953
2023-05-06T05:50:16.155Z,13.8904
2023-05-06T05:52:16.938Z,13.9428
2023-05-06T05:53:18.166Z,13.9706
2023-05-06T05:54:18.145Z,13.9845
2023-05-06T05:55:19.454Z,14.0085
2023-05-06T05:56:20.038Z,14.0502
2023-05-06T05:57:21.097Z,14.0160
2023-05-06T05:58:22.605Z,14.0242
2023-05-06T06:00:23.566Z,14.0643
2023-05-06T06:01:23.504Z,14.0644
2023-05-06T06:02:24.556Z,14.0483
2023-05-06T06:03:25.652Z,14.0241
2023-05-06T06:04:26.710Z,14.0263
2023-05-06T06:05:27.351Z,14.0189
2023-05-06T06:06:28.661Z,13.9876
2023-05-06T06:07:29.690Z,13.9750
2023-05-06T06:08:30.885Z,13.9797
2023-05-06T06:09:32.103Z,14.0170
2023-05-06T06:10:33.154Z,14.0609
2023-05-06T06:11:34.369Z,14.0925
2023-05-06T06:12:35.411Z,14.1719
2023-05-06T06:13:35.879Z,14.2403
2023-05-06T06:14:36.993Z,14.2593
2023-05-06T06:15:38.277Z,14.2601
2023-05-06T06:16:38.762Z,14.2697
2023-05-06T06:17:38.660Z,14.3286
2023-05-06T06:18:38.850Z,14.3599
2023-05-06T06:19:39.985Z,14.3722
2023-05-06T06:20:41.252Z,14.4106
2023-05-06T06:21:42.356Z,14.3943
2023-05-06T06:22:43.426Z,14.3753
2023-05-06T06:23:44.467Z,14.3496
2023-05-06T06:24:45.595Z,14.3674
2023-05-06T06:25:45.925Z,14.3792
2023-05-06T06:26:46.941Z,14.3359
2023-05-06T06:27:48.202Z,14.3411
2023-05-06T06:28:49.523Z,14.3359
2023-05-06T06:29:50.520Z,14.3472
2023-05-06T06:30:51.845Z,14.3437
2023-05-06T06:31:51.897Z,14.3658
2023-05-06T06:32:51.932Z,14.3769
2023-05-06T06:33:53.136Z,14.3807
2023-05-06T06:34:54.442Z,14.4198
2023-05-06T06:35:54.632Z,14.4657
2023-05-06T06:36:55.853Z,14.5063
2023-05-06T06:37:57.116Z,14.5259
2023-05-06T06:38:58.360Z,14.5542
2023-05-06T06:39:58.172Z,14.5385
2023-05-06T06:40:59.418Z,14.5174
2023-05-06T06:42:00.616Z,14.5549
2023-05-06T06:43:01.644Z,14.6094
2023-05-06T06:44:02.793Z,14.6207
2023-05-06T06:45:04.075Z,14.6372
2023-05-06T06:46:05.239Z,14.6551
2023-05-06T06:47:06.551Z,14.6493
2023-05-06T06:48:06.677Z,14.6792
2023-05-06T06:49:06.708Z,14.7402
2023-05-06T06:50:07.737Z,14.7511
2023-05-06T06:52:08.582Z,14.7040
2023-05-06T06:53:09.908Z,14.6931
2023-05-06T06:54:11.102Z,14.7172
2023-05-06T06:55:11.696Z,14.7844
2023-05-06T06:56:11.624Z,14.7889
2023-05-06T06:57:11.611Z,14.7791
2023-05-06T06:58:12.666Z,14.8116
2023-05-06T06:59:14.040Z,14.8641
2023-05-06T07:00:15.052Z,14.8350
2023-05-06T07:03:17.628Z,14.7478
2023-05-06T07:04:18.933Z,14.7518
2023-05-06T07:05:19.941Z,14.7908
2023-05-06T07:06:20.790Z,14.8373
2023-05-06T07:07:21.131Z,14.8630
2023-05-06T07:08:21.659Z,14.9094
2023-05-06T07:09:22.401Z,14.9941
2023-05-06T07:10:22.668Z,15.0671
2023-05-06T07:11:23.041Z,15.0769
2023-05-06T07:12:23.649Z,14.9421
2023-05-06T07:13:24.469Z,14.9676
2023-05-06T07:14:25.224Z,14.9422
2023-05-06T07:16:25.796Z,15.0008
2023-05-06T07:17:26.150Z,14.9054
2023-05-06T07:18:26.106Z,14.8811
2023-05-06T07:19:26.279Z,14.9556
2023-05-06T07:20:27.329Z,15.0440
2023-05-06T07:21:28.459Z,15.0809
2023-05-06T07:22:28.616Z,15.1377
2023-05-06T07:23:31.897Z,15.1218
2023-05-06T07:24:30.885Z,15.0785
2023-05-06T07:25:32.059Z,15.1539
2023-05-06T07:26:33.414Z,15.2005
2023-05-06T07:27:34.711Z,15.2006
2023-05-06T07:28:35.941Z,15.2213
2023-05-06T07:29:36.105Z,15.1638
2023-05-06T07:30:37.438Z,15.1983
2023-05-06T07:31:37.768Z,15.1965
2023-05-06T07:32:38.927Z,15.2270
2023-05-06T07:33:40.252Z,15.2793
2023-05-06T07:34:41.359Z,15.3591
2023-05-06T07:35:41.525Z,15.4318
2023-05-06T07:36:42.764Z,15.4704
2023-05-06T07:37:43.763Z,15.4519
2023-05-06T07:38:44.800Z,15.3626
2023-05-06T07:39:45.660Z,15.3734
2023-05-06T07:40:46.822Z,15.4024
2023-05-06T07:41:47.349Z,15.3995
2023-05-06T07:42:48.253Z,15.4043
2023-05-06T07:43:48.416Z,15.4042
2023-05-06T07:44:49.208Z,15.4426
2023-05-06T07:45:50.200Z,15.4811
2023-05-06T07:46:51.244Z,15.4789
2023-05-06T07:47:51.077Z,15.4966
2023-05-06T07:48:51.864Z,15.5255
2023-05-06T07:49:52.597Z,15.5180
2023-05-06T07:50:53.018Z,15.4573
2023-05-06T07:51:54.902Z,15.4152
2023-05-06T07:52:54.995Z,15.4094
2023-05-06T07:53:55.624Z,15.5032
2023-05-06T07:54:56.606Z,15.5644
2023-05-06T07:55:56.779Z,15.5541
2023-05-06T07:56:57.226Z,15.6010
2023-05-06T07:57:58.506Z,15.6338
2023-05-06T07:58:59.778Z,15.6423
2023-05-06T07:59:59.982Z,15.6002
2023-05-06T08:01:01.282Z,15.6525
2023-05-06T08:02:02.580Z,15.6696
2023-05-06T08:03:04.060Z,15.6851
2023-05-06T08:04:04.152Z,15.7721
2023-05-06T08:05:04.913Z,15.8378
2023-05-06T08:07:12.970Z,15.8614
2023-05-06T08:08:14.214Z,15.8612
2023-05-06T08:09:22.241Z,15.7818
2023-05-06T08:10:15.798Z,15.8505
2023-05-06T08:11:18.823Z,15.8885
2023-05-06T08:12:17.599Z,15.8704
2023-05-06T08:13:18.900Z,15.9231
2023-05-06T08:14:20.137Z,15.9737
2023-05-06T08:15:20.129Z,16.0491
2023-05-06T08:16:22.576Z,16.0305
2023-05-06T08:17:21.800Z,16.1389
2023-05-06T08:18:23.496Z,16.1949
2023-05-06T08:19:23.469Z,16.2437
2023-05-06T08:20:23.279Z,16.3992
2023-05-06T08:21:24.153Z,16.4373
2023-05-06T08:22:25.360Z,16.5605
2023-05-06T08:23:26.412Z,16.7131
2023-05-06T08:24:27.292Z,16.8282
2023-05-06T08:25:27.416Z,16.9447
2023-05-06T08:26:28.509Z,17.0208
2023-05-06T08:27:29.298Z,17.0719
2023-05-06T08:28:30.194Z,17.0299
2023-05-06T08:29:31.008Z,16.9335
2023-05-06T08:30:32.138Z,16.8248
2023-05-06T08:31:33.191Z,16.8248
2023-05-06T08:32:33.300Z,16.7188
2023-05-06T08:33:33.512Z,16.7135
2023-05-06T08:34:33.759Z,16.7562
2023-05-06T08:35:34.010Z,16.7733
2023-05-06T08:36:34.831Z,16.7734
2023-05-06T08:37:35.906Z,16.7804
2023-05-06T08:38:36.809Z,16.8170
2023-05-06T08:39:37.822Z,16.8106
2023-05-06T08:40:38.685Z,16.8058
2023-05-06T08:41:39.972Z,16.8327
2023-05-06T08:42:41.122Z,16.8637
2023-05-06T08:43:42.183Z,16.8764
2023-05-06T08:44:43.213Z,16.9012
2023-05-06T08:45:44.163Z,16.8184
2023-05-06T08:46:44.451Z,16.8852
2023-05-06T08:47:45.482Z,16.9125
2023-05-06T08:48:46.320Z,16.9201
2023-05-06T08:49:47.441Z,16.8262
2023-05-06T08:50:48.468Z,16.7499
2023-05-06T08:51:49.712Z,16.7918
2023-05-06T08:52:51.036Z,16.8247
2023-05-06T08:53:52.188Z,16.9154
2023-05-06T08:54:52.295Z,17.0367
2023-05-06T08:55:52.485Z,17.2961
2023-05-06T08:56:53.772Z,17.4195
2023-05-06T08:57:54.276Z,17.6172
2023-05-06T08:58:55.369Z,17.7120
2023-05-06T08:59:56.647Z,17.7891
2023-05-06T09:00:57.487Z,17.7438
2023-05-06T09:01:57.719Z,17.6474
2023-05-06T09:02:58.853Z,17.6284
2023-05-06T09:03:59.617Z,17.5337
2023-05-06T09:05:00.847Z,17.5126
2023-05-06T09:06:00.854Z,17.5698
2023-05-06T09:07:01.990Z,17.6327
2023-05-06T09:08:03.266Z,17.5563
2023-05-06T09:09:04.508Z,17.4310
2023-05-06T09:10:05.347Z,17.5150
2023-05-06T09:11:06.380Z,17.6235
2023-05-06T09:12:07.610Z,17.6603
2023-05-06T09:13:08.684Z,17.7075
2023-05-06T09:14:09.840Z,17.7417
2023-05-06T09:15:10.741Z,17.6953
2023-05-06T09:16:11.688Z,17.7087
2023-05-06T09:17:12.849Z,17.7886
2023-05-06T09:18:13.066Z,17.8386
2023-05-06T09:19:14.017Z,17.8793
2023-05-06T09:20:14.817Z,17.8861
2023-05-06T09:21:15.456Z,17.9525
2023-05-06T09:22:15.609Z,17.9462
2023-05-06T09:23:16.603Z,17.9118
2023-05-06T09:24:17.647Z,17.9482
2023-05-06T09:25:18.603Z,17.8903
2023-05-06T09:26:19.575Z,17.8163
2023-05-06T09:27:20.108Z,17.8064
2023-05-06T09:28:21.395Z,17.8853
2023-05-06T09:29:22.406Z,17.9321
2023-05-06T09:30:23.625Z,17.9028
2023-05-06T09:31:24.368Z,17.8644
2023-05-06T09:32:25.377Z,17.8873
2023-05-06T09:33:25.905Z,17.8147
2023-05-06T09:34:26.986Z,17.7630
2023-05-06T09:35:27.037Z,17.7500
2023-05-06T09:36:28.381Z,17.7803
2023-05-06T09:37:29.399Z,17.7515
2023-05-06T09:38:30.358Z,17.6556
2023-05-06T09:39:31.351Z,17.6466
2023-05-06T09:40:32.268Z,17.6899
2023-05-06T09:41:33.265Z,17.7046
2023-05-06T09:42:34.190Z,17.6885
2023-05-06T09:43:35.206Z,17.6811
2023-05-06T09:44:36.538Z,17.7032
2023-05-06T09:45:37.336Z,17.6929
2023-05-06T09:46:38.751Z,17.7496
2023-05-06T09:47:39.079Z,17.7757
2023-05-06T09:48:39.096Z,17.7735
2023-05-06T09:49:40.064Z,17.8257
2023-05-06T09:50:40.975Z,17.8768
2023-05-06T09:51:41.938Z,17.8698
2023-05-06T09:52:43.052Z,17.9258
2023-05-06T09:53:44.107Z,17.9998
2023-05-06T09:54:45.021Z,18.0647
2023-05-06T09:55:45.131Z,18.2034
2023-05-06T09:56:46.188Z,18.3151
2023-05-06T09:57:46.468Z,18.4265
2023-05-06T09:58:47.529Z,18.4832
2023-05-06T09:59:48.656Z,18.4672
2023-05-06T10:00:48.836Z,18.5220
2023-05-06T10:01:49.247Z,18.5759
2023-05-06T10:02:49.448Z,18.5703
2023-05-06T10:03:49.617Z,18.4197
2023-05-06T10:04:50.229Z,18.4556
2023-05-06T10:05:50.870Z,18.4350
2023-05-06T10:06:51.821Z,18.4564
2023-05-06T10:07:52.869Z,18.3650
2023-05-06T10:08:53.884Z,18.3479
2023-05-06T10:09:54.981Z,18.3830
2023-05-06T10:10:56.014Z,18.4107
2023-05-06T10:11:57.044Z,18.3267
2023-05-06T10:12:57.181Z,18.3637
2023-05-06T10:13:58.294Z,18.4005
2023-05-06T10:14:58.440Z,18.4405
2023-05-06T10:15:59.605Z,18.4420
2023-05-06T10:16:59.939Z,18.4146
2023-05-06T10:18:00.253Z,18.4291
2023-05-06T10:19:01.221Z,18.4978
2023-05-06T10:20:01.881Z,18.4273
2023-05-06T10:21:02.818Z,18.5586
2023-05-06T10:22:05.587Z,18.6600
2023-05-06T10:23:04.580Z,18.7155
2023-05-06T10:24:05.403Z,18.6392
2023-05-06T10:25:06.567Z,18.7039
2023-05-06T10:26:07.719Z,18.7731
2023-05-06T10:27:08.766Z,18.8502
2023-05-06T10:28:23.170Z,18.9209
2023-05-06T10:29:13.412Z,18.9659
2023-05-06T10:30:14.560Z,19.0736
2023-05-06T10:31:15.691Z,19.1916
2023-05-06T10:32:15.608Z,19.3809
2023-05-06T10:33:16.948Z,19.5033
2023-05-06T10:34:18.025Z,19.5343
2023-05-06T10:36:18.865Z,19.6308
2023-05-06T10:37:19.935Z,19.7549
2023-05-06T10:38:20.875Z,19.8228
2023-05-06T10:39:21.931Z,19.8903
2023-05-06T10:40:23.098Z,19.9664
2023-05-06T10:41:24.065Z,20.0578
2023-05-06T10:42:25.453Z,20.0911
2023-05-06T10:43:26.495Z,20.0102
2023-05-06T10:44:27.619Z,20.1259
2023-05-06T10:45:28.769Z,20.0745
2023-05-06T10:46:29.801Z,20.0777
2023-05-06T10:47:30.900Z,20.0377
2023-05-06T10:48:32.009Z,19.9772
2023-05-06T10:49:33.340Z,19.7680
2023-05-06T10:50:34.482Z,19.7949
2023-05-06T10:51:35.397Z,19.8519
2023-05-06T10:52:36.652Z,19.9309
2023-05-06T10:53:37.546Z,20.0298
2023-05-06T10:56:39.279Z,20.4760
2023-05-06T10:57:40.292Z,20.5909
2023-05-06T10:58:41.474Z,20.7233
2023-05-06T10:59:42.599Z,20.5633
2023-05-06T11:00:43.432Z,20.5796
2023-05-06T11:01:43.711Z,20.6065
2023-05-06T11:02:49.398Z,20.5977
2023-05-06T11:03:49.983Z,20.5438
2023-05-06T11:04:51.004Z,20.6297
2023-05-06T11:05:52.139Z,20.6990
2023-05-06T11:06:53.195Z,20.7570
2023-05-06T11:07:54.322Z,20.7047
2023-05-06T11:08:55.369Z,20.6794
2023-05-06T11:09:56.389Z,20.7547
2023-05-06T11:10:57.404Z,20.8753
2023-05-06T11:11:58.333Z,20.9975
2023-05-06T11:12:58.557Z,20.9146
2023-05-06T11:13:59.728Z,20.6769
2023-05-06T11:15:00.906Z,20.5964
2023-05-06T11:16:02.105Z,20.4704
2023-05-06T11:17:03.630Z,20.4745
2023-05-06T11:18:04.755Z,20.3996
2023-05-06T11:19:04.856Z,20.5270
2023-05-06T11:21:05.230Z,20.7613
2023-05-06T11:22:06.246Z,20.9843
2023-05-06T11:23:06.383Z,21.1626
2023-05-06T11:24:07.293Z,21.3153
2023-05-06T11:25:08.298Z,21.4311
2023-05-06T11:26:09.329Z,20.8342
2023-05-06T11:27:10.671Z,20.4322
2023-05-06T11:28:10.900Z,20.3730
2023-05-06T11:29:11.508Z,20.2182
2023-05-06T11:30:12.785Z,20.3018
2023-05-06T11:31:12.661Z,20.3880
2023-05-06T11:32:12.865Z,20.5364
2023-05-06T11:33:14.031Z,20.5697
2023-05-06T11:34:15.291Z,20.6439
2023-05-06T11:35:16.215Z,20.5524
2023-05-06T11:36:17.390Z,20.4583
2023-05-06T11:37:18.519Z,20.5775
2023-05-06T11:38:18.584Z,20.6464
2023-05-06T11:39:19.633Z,20.6278
2023-05-06T11:40:19.875Z,20.4491
2023-05-06T11:41:20.852Z,20.4181
2023-05-06T11:42:21.769Z,20.5101
2023-05-06T11:43:22.830Z,20.6404
2023-05-06T11:44:23.891Z,20.7696
2023-05-06T11:46:24.595Z,20.7953
2023-05-06T11:47:24.736Z,20.5705
2023-05-06T11:48:24.750Z,20.4829
2023-05-06T11:49:26.063Z,20.6060
2023-05-06T11:50:26.245Z,20.5441
2023-05-06T11:51:27.415Z,20.5305
2023-05-06T11:52:27.503Z,20.4422
2023-05-06T11:53:27.840Z,20.4100
2023-05-06T11:55:28.991Z,20.5709
2023-05-06T11:56:29.475Z,20.4907
2023-05-06T11:57:30.635Z,20.5050
2023-05-06T11:58:30.773Z,20.3918
2023-05-06T11:59:31.432Z,20.2573
2023-05-06T12:00:31.715Z,20.1727
2023-05-06T12:01:31.992Z,20.2317
2023-05-06T12:02:32.763Z,20.0867
2023-05-06T12:03:34.738Z,20.0256
2023-05-06T12:04:34.952Z,19.9423
2023-05-06T12:05:36.414Z,20.1583
2023-05-06T12:07:36.017Z,20.3690
2023-05-06T12:08:36.036Z,20.7309
2023-05-06T12:09:36.117Z,21.0580
2023-05-06T12:10:37.137Z,21.3277
2023-05-06T12:11:37.218Z,21.6852
2023-05-06T12:12:37.963Z,22.0568
2023-05-06T12:13:38.953Z,22.3234
2023-05-06T12:14:39.245Z,22.3732
2023-05-06T12:15:39.832Z,22.6297
2023-05-06T12:16:40.114Z,22.9052
2023-05-06T12:18:44.137Z,23.4071
2023-05-06T12:19:45.399Z,23.4011
2023-05-06T12:20:45.851Z,23.5202
2023-05-06T12:21:45.909Z,23.8778
2023-05-06T12:22:46.321Z,24.2354
2023-05-06T12:23:48.535Z,23.7569
2023-05-06T12:25:36.641Z,24.1996
2023-05-06T12:26:37.770Z,24.4294
2023-05-06T12:27:38.135Z,24.5689
2023-05-06T12:28:38.420Z,24.8662
2023-05-06T12:29:39.392Z,24.6923
2023-05-06T12:30:40.721Z,24.9050
2023-05-06T12:31:41.998Z,24.9843
2023-05-06T12:32:42.096Z,24.8586
2023-05-06T12:33:43.429Z,24.9139